Time;durP1;ratioP1;P1;durP2;ratioP2;P2;SDS_P1;SDS_P2;PMS_P1;PMS_P2;Temp;Humidity;BMP_temperature;BMP_pressure;BME280_temperature;BME280_humidity;BME280_pressure;Samples;Min_cycle;Max_cycle;Signal;HPM_P1;HPM_P2
2023/04/30 00:01:57;;;;;;;5.68;3.60;;;13.30;99.90;;;;;;5058453;28;20108;-80
2023/04/30 00:04:22;;;;;;;4.63;3.55;;;13.20;99.90;;;;;;5077239;28;20048;-79
2023/04/30 00:06:49;;;;;;;4.90;3.58;;;13.30;99.90;;;;;;5060629;28;20028;-81
2023/04/30 00:09:14;;;;;;;4.88;3.35;;;13.30;99.90;;;;;;5061355;28;20366;-80
2023/04/30 00:11:40;;;;;;;4.43;3.10;;;13.20;99.90;;;;;;5061029;28;20028;-81
2023/04/30 00:14:06;;;;;;;6.75;4.00;;;13.20;99.90;;;;;;5060700;28;20044;-79
2023/04/30 00:16:31;;;;;;;5.97;4.03;;;13.20;99.90;;;;;;5059961;28;20021;-80
2023/04/30 00:18:57;;;;;;;6.95;4.03;;;13.20;99.90;;;;;;5059506;28;20501;-80
2023/04/30 00:21:22;;;;;;;7.32;4.85;;;13.20;99.90;;;;;;5059901;28;20036;-81
2023/04/30 00:23:48;;;;;;;8.07;4.32;;;13.20;99.90;;;;;;5059995;28;20029;-80
2023/04/30 00:26:14;;;;;;;9.52;4.53;;;13.20;99.90;;;;;;5059629;28;20358;-81
2023/04/30 00:28:40;;;;;;;9.63;4.47;;;13.20;99.90;;;;;;5059551;28;20048;-80
2023/04/30 00:31:05;;;;;;;6.97;4.60;;;13.20;99.90;;;;;;5078314;28;20021;-81
2023/04/30 00:33:31;;;;;;;7.05;4.90;;;13.10;99.90;;;;;;5068787;28;20070;-81
2023/04/30 00:35:57;;;;;;;7.45;4.68;;;13.10;99.90;;;;;;5079609;28;20040;-81
2023/04/30 00:38:23;;;;;;;7.05;4.97;;;13.20;99.90;;;;;;5057941;28;20036;-81
2023/04/30 00:40:49;;;;;;;7.00;4.32;;;13.10;99.90;;;;;;5075508;28;20396;-81
2023/04/30 00:43:14;;;;;;;9.77;5.05;;;13.20;99.90;;;;;;5057580;28;20025;-81
2023/04/30 00:45:40;;;;;;;7.90;4.60;;;13.20;99.90;;;;;;5057945;28;20028;-82
2023/04/30 00:48:06;;;;;;;6.05;4.30;;;13.20;99.90;;;;;;5057388;28;20028;-82
2023/04/30 00:50:34;;;;;;;8.23;4.80;;;13.20;99.90;;;;;;5057828;28;20111;-81
2023/04/30 00:53:00;;;;;;;7.88;4.72;;;13.20;99.90;;;;;;5056582;28;20165;-82
2023/04/30 00:55:26;;;;;;;9.07;5.13;;;13.10;99.90;;;;;;5057149;28;20028;-82
2023/04/30 00:57:53;;;;;;;7.65;5.05;;;13.10;99.90;;;;;;5057513;28;20040;-82
2023/04/30 01:00:18;;;;;;;7.43;4.93;;;13.10;99.90;;;;;;5057746;28;20024;-82
2023/04/30 01:02:44;;;;;;;7.35;4.78;;;13.10;99.90;;;;;;5075062;28;20029;-81
2023/04/30 01:05:10;;;;;;;8.75;4.75;;;13.10;99.90;;;;;;5057028;28;20111;-81
2023/04/30 01:07:43;;;;;;;7.55;4.80;;;13.20;99.90;;;;;;5058036;28;20021;-82
2023/04/30 01:10:11;;;;;;;6.05;4.47;;;13.10;99.90;;;;;;5057034;28;20439;-82
2023/04/30 01:12:51;;;;;;;8.93;4.95;;;13.20;99.90;;;;;;5074270;28;20024;-80
2023/04/30 01:15:35;;;;;;;7.57;4.90;;;13.20;99.90;;;;;;5074975;28;20029;-82
2023/04/30 01:18:11;;;;;;;7.40;4.90;;;13.20;99.90;;;;;;5057254;28;20079;-81
2023/04/30 01:20:47;;;;;;;7.80;4.85;;;13.20;99.90;;;;;;5057306;28;20025;-81
2023/04/30 01:23:31;;;;;;;8.15;5.28;;;13.10;99.90;;;;;;5056840;28;20036;-82
2023/04/30 01:26:09;;;;;;;8.98;5.20;;;13.10;99.90;;;;;;5056509;28;20093;-82
2023/04/30 01:28:35;;;;;;;7.82;5.28;;;13.10;99.90;;;;;;5056851;28;20052;-81
2023/04/30 01:31:01;;;;;;;8.73;4.95;;;13.00;99.90;;;;;;5056477;28;20113;-82
2023/04/30 01:33:26;;;;;;;8.43;5.07;;;13.00;99.90;;;;;;5057436;28;20025;-82
2023/04/30 01:36:07;;;;;;;7.80;5.00;;;13.00;99.90;;;;;;5057311;28;20035;-81
2023/04/30 01:39:00;;;;;;;7.85;5.25;;;13.00;99.90;;;;;;5074686;28;20032;-81
2023/04/30 01:41:42;;;;;;;8.40;5.20;;;13.00;99.90;;;;;;5056754;28;20350;-81
2023/04/30 01:44:45;;;;;;;8.80;5.22;;;13.00;99.90;;;;;;5073194;28;20029;-82
2023/04/30 01:47:19;;;;;;;10.18;5.78;;;13.00;99.90;;;;;;5074036;28;20074;-81
2023/04/30 01:49:56;;;;;;;8.45;5.63;;;13.00;99.90;;;;;;5073287;28;20086;-82
2023/04/30 01:52:30;;;;;;;8.77;4.80;;;13.00;99.90;;;;;;5074721;28;20047;-82
2023/04/30 01:55:04;;;;;;;8.45;5.28;;;13.00;99.90;;;;;;5057098;28;20021;-81
2023/04/30 01:57:39;;;;;;;8.35;4.70;;;12.90;99.90;;;;;;5056693;28;20020;-81
2023/04/30 02:00:09;;;;;;;6.30;4.60;;;12.90;99.90;;;;;;5074239;28;20039;-83
2023/04/30 02:02:35;;;;;;;6.78;4.65;;;12.90;99.90;;;;;;5056813;28;20028;-83
2023/04/30 02:05:01;;;;;;;7.82;4.63;;;12.90;99.90;;;;;;5072810;28;20052;-83
2023/04/30 02:07:41;;;;;;;10.25;5.20;;;12.90;99.90;;;;;;5073147;28;20512;-81
2023/04/30 02:10:07;;;;;;;8.15;4.88;;;12.90;99.90;;;;;;5056369;28;20039;-82
2023/04/30 02:12:34;;;;;;;7.38;5.10;;;12.90;99.90;;;;;;5074104;28;20029;-81
2023/04/30 02:15:00;;;;;;;7.88;4.43;;;12.80;99.90;;;;;;5073440;28;20078;-82
2023/04/30 02:17:26;;;;;;;6.45;4.28;;;12.90;99.90;;;;;;5056135;28;20028;-81
2023/04/30 02:19:52;;;;;;;8.00;4.90;;;12.90;99.90;;;;;;5073786;28;20024;-81
2023/04/30 02:22:17;;;;;;;6.88;4.68;;;12.80;99.90;;;;;;5073572;28;20285;-81
2023/04/30 02:24:43;;;;;;;7.97;5.07;;;12.90;99.90;;;;;;5073735;28;20461;-81
2023/04/30 02:27:08;;;;;;;6.97;4.68;;;12.80;99.90;;;;;;5072439;28;20024;-81
2023/04/30 02:29:34;;;;;;;7.95;5.07;;;12.80;99.90;;;;;;5072198;28;20127;-81
2023/04/30 02:32:00;;;;;;;8.52;4.68;;;12.80;99.90;;;;;;5072405;28;20484;-81
2023/04/30 02:34:25;;;;;;;6.85;4.57;;;12.80;99.90;;;;;;5072754;28;20070;-80
2023/04/30 02:36:51;;;;;;;6.35;4.68;;;12.80;99.90;;;;;;5073840;28;20024;-81
2023/04/30 02:39:17;;;;;;;7.05;5.07;;;12.80;99.90;;;;;;5072123;28;20138;-81
2023/04/30 02:41:42;;;;;;;7.43;4.82;;;12.80;99.90;;;;;;5073586;28;20170;-80
2023/04/30 02:44:08;;;;;;;6.45;4.20;;;12.80;99.90;;;;;;5071839;28;20530;-81
2023/04/30 02:46:33;;;;;;;5.43;4.00;;;12.80;99.90;;;;;;5073385;28;20029;-81
2023/04/30 02:48:59;;;;;;;7.00;5.03;;;12.80;99.90;;;;;;5056027;28;20107;-81
2023/04/30 02:51:25;;;;;;;8.93;4.93;;;12.80;99.90;;;;;;5055563;28;20456;-81
2023/04/30 02:53:51;;;;;;;6.75;4.60;;;12.80;99.90;;;;;;5073262;28;20099;-81
2023/04/30 02:56:16;;;;;;;9.10;4.65;;;12.80;99.90;;;;;;5071477;28;20063;-82
2023/04/30 02:58:42;;;;;;;8.48;4.95;;;12.80;99.90;;;;;;5072613;28;20036;-81
2023/04/30 03:01:08;;;;;;;6.82;4.53;;;12.70;99.90;;;;;;5072388;28;20029;-81
2023/04/30 03:03:33;;;;;;;6.90;4.45;;;12.70;99.90;;;;;;5073273;28;20056;-81
2023/04/30 03:05:59;;;;;;;8.93;4.75;;;12.70;99.90;;;;;;5055612;28;20074;-81
2023/04/30 03:08:25;;;;;;;10.23;5.32;;;12.70;99.90;;;;;;5072685;28;20060;-81
2023/04/30 03:10:51;;;;;;;7.20;4.72;;;12.70;99.90;;;;;;5073420;28;20025;-81
2023/04/30 03:13:17;;;;;;;8.05;4.82;;;12.70;99.90;;;;;;5071390;28;20035;-82
2023/04/30 03:15:42;;;;;;;8.52;5.25;;;12.70;99.90;;;;;;5071734;28;20035;-81
2023/04/30 03:18:09;;;;;;;11.27;5.57;;;12.70;99.90;;;;;;5071754;28;20028;-82
2023/04/30 03:20:35;;;;;;;7.45;4.70;;;12.70;99.90;;;;;;5073495;28;20029;-81
2023/04/30 03:23:01;;;;;;;9.65;5.18;;;12.70;99.90;;;;;;5073510;28;20117;-81
2023/04/30 03:25:27;;;;;;;8.90;4.82;;;12.60;99.90;;;;;;5055578;28;20431;-81
2023/04/30 03:27:52;;;;;;;7.80;4.75;;;12.60;99.90;;;;;;5072793;28;20496;-82
2023/04/30 03:30:18;;;;;;;7.70;5.22;;;12.60;99.90;;;;;;5071894;28;20021;-82
2023/04/30 03:32:43;;;;;;;6.43;4.55;;;12.60;99.90;;;;;;5072260;28;20056;-82
2023/04/30 03:35:09;;;;;;;7.43;4.82;;;12.60;99.90;;;;;;5072822;28;20540;-81
2023/04/30 03:37:35;;;;;;;8.82;4.65;;;12.60;99.90;;;;;;5076635;28;20112;-81
2023/04/30 03:40:01;;;;;;;8.30;5.05;;;12.60;99.90;;;;;;5076077;28;20111;-81
2023/04/30 03:42:26;;;;;;;7.40;4.45;;;12.60;99.90;;;;;;5075615;28;20035;-82
2023/04/30 03:44:52;;;;;;;8.27;5.00;;;12.60;99.90;;;;;;5076646;28;20031;-82
2023/04/30 03:47:17;;;;;;;8.80;5.00;;;12.60;99.90;;;;;;5076249;28;20044;-81
2023/04/30 03:49:43;;;;;;;7.85;4.70;;;12.60;99.90;;;;;;5075933;28;20055;-82
2023/04/30 03:52:08;;;;;;;7.68;4.78;;;12.60;99.90;;;;;;5075357;28;20060;-81
2023/04/30 03:54:34;;;;;;;8.30;4.75;;;12.60;99.90;;;;;;5075666;28;20024;-82
2023/04/30 03:57:03;;;;;;;7.63;4.57;;;12.60;99.90;;;;;;5058751;28;20078;-82
2023/04/30 03:59:30;;;;;;;7.03;4.32;;;12.50;99.90;;;;;;5074756;28;20043;-82
2023/04/30 04:01:55;;;;;;;6.45;4.38;;;12.50;99.90;;;;;;5059236;28;20138;-82
2023/04/30 04:04:21;;;;;;;9.52;4.60;;;12.50;99.90;;;;;;5058651;28;20054;-82
2023/04/30 04:06:47;;;;;;;7.30;5.00;;;12.50;99.90;;;;;;5058852;28;20029;-80
2023/04/30 04:09:12;;;;;;;10.00;5.15;;;12.50;99.90;;;;;;5076018;28;20032;-82
2023/04/30 04:11:38;;;;;;;7.55;4.25;;;12.50;99.90;;;;;;5058551;28;20066;-81
2023/04/30 04:14:04;;;;;;;6.60;4.60;;;12.50;99.90;;;;;;5058848;28;20047;-81
2023/04/30 04:16:29;;;;;;;6.35;4.30;;;12.40;99.90;;;;;;5076023;28;20215;-79
2023/04/30 04:18:55;;;;;;;10.02;4.68;;;12.50;99.90;;;;;;5076229;28;20035;-81
2023/04/30 04:21:20;;;;;;;6.90;4.28;;;12.40;99.90;;;;;;5058208;28;20465;-80
2023/04/30 04:23:46;;;;;;;6.97;4.32;;;12.40;99.90;;;;;;5058848;28;20028;-81
2023/04/30 04:26:12;;;;;;;8.07;4.38;;;12.50;99.90;;;;;;5057584;28;20412;-81
2023/04/30 04:28:37;;;;;;;6.68;3.88;;;12.40;99.90;;;;;;5075703;28;20139;-81
2023/04/30 04:31:03;;;;;;;6.47;3.90;;;12.40;99.90;;;;;;5058212;28;20485;-81
2023/04/30 04:33:29;;;;;;;6.57;4.22;;;12.40;99.90;;;;;;5057727;28;20491;-81
2023/04/30 04:35:56;;;;;;;5.50;4.30;;;12.40;99.90;;;;;;5075595;28;20074;-82
2023/04/30 04:38:22;;;;;;;6.95;4.20;;;12.40;99.90;;;;;;5057672;28;20033;-82
2023/04/30 04:40:52;;;;;;;7.30;4.05;;;12.40;99.90;;;;;;5058049;28;20081;-82
2023/04/30 04:43:18;;;;;;;5.35;3.92;;;12.50;99.90;;;;;;5075276;28;20089;-82
2023/04/30 04:45:44;;;;;;;6.50;3.92;;;12.50;99.90;;;;;;5057710;28;20473;-81
2023/04/30 04:48:10;;;;;;;5.88;4.13;;;12.50;99.90;;;;;;5057428;28;20035;-82
2023/04/30 04:50:35;;;;;;;5.50;3.60;;;12.50;99.90;;;;;;5057506;28;20031;-81
2023/04/30 04:53:01;;;;;;;9.02;4.50;;;12.50;99.90;;;;;;5054199;28;20028;-81
2023/04/30 04:55:26;;;;;;;6.10;4.20;;;12.50;99.90;;;;;;5057168;28;20267;-81
2023/04/30 04:57:52;;;;;;;6.28;4.28;;;12.40;99.90;;;;;;5057573;28;20037;-81
2023/04/30 05:00:18;;;;;;;5.35;3.78;;;12.40;99.90;;;;;;5055012;28;20025;-82
2023/04/30 05:02:43;;;;;;;6.60;4.05;;;12.50;99.90;;;;;;5037913;28;20033;-82
2023/04/30 05:05:09;;;;;;;6.10;4.00;;;12.50;99.90;;;;;;5037260;28;20021;-83
2023/04/30 05:07:35;;;;;;;6.32;4.13;;;12.50;99.90;;;;;;5037922;28;20029;-82
2023/04/30 05:10:01;;;;;;;6.82;3.95;;;12.50;99.90;;;;;;5055003;28;20455;-81
2023/04/30 05:12:26;;;;;;;7.25;4.22;;;12.40;99.90;;;;;;5036852;28;20476;-81
2023/04/30 05:14:52;;;;;;;6.38;4.40;;;12.40;99.90;;;;;;5049335;28;20025;-81
2023/04/30 05:17:17;;;;;;;6.30;4.40;;;12.40;99.90;;;;;;5055695;28;20104;-81
2023/04/30 05:19:44;;;;;;;5.75;4.32;;;12.50;99.90;;;;;;5044342;28;20488;-81
2023/04/30 05:22:09;;;;;;;6.35;4.25;;;12.50;99.90;;;;;;5060126;28;20043;-82
2023/04/30 05:24:35;;;;;;;5.30;3.60;;;12.50;99.90;;;;;;5037104;28;20100;-80
2023/04/30 05:27:04;;;;;;;6.97;4.25;;;12.50;99.90;;;;;;5055083;28;20072;-81
2023/04/30 05:29:30;;;;;;;5.30;3.70;;;12.50;99.90;;;;;;5015030;28;20054;-81
2023/04/30 05:31:56;;;;;;;5.90;4.28;;;12.60;99.90;;;;;;5013768;28;20069;-81
2023/04/30 05:34:21;;;;;;;5.55;4.10;;;12.60;99.90;;;;;;5013330;28;20026;-79
2023/04/30 05:36:47;;;;;;;5.80;4.00;;;12.60;99.90;;;;;;5014987;28;20128;-79
2023/04/30 05:39:13;;;;;;;6.63;4.25;;;12.60;99.90;;;;;;5032597;28;20038;-80
2023/04/30 05:41:38;;;;;;;8.65;4.43;;;12.60;99.90;;;;;;5034357;28;20048;-79
2023/04/30 05:44:04;;;;;;;6.57;4.00;;;12.60;99.90;;;;;;5034391;28;20096;-79
2023/04/30 05:46:30;;;;;;;7.35;4.18;;;12.70;99.90;;;;;;5032947;28;20112;-79
2023/04/30 05:48:55;;;;;;;7.05;4.32;;;12.70;99.90;;;;;;5034037;28;20428;-79
2023/04/30 05:51:21;;;;;;;6.63;4.25;;;12.70;99.90;;;;;;5032509;28;20022;-79
2023/04/30 05:53:47;;;;;;;6.43;4.43;;;12.70;99.90;;;;;;5032795;28;20474;-79
2023/04/30 05:56:12;;;;;;;8.93;5.22;;;12.80;99.90;;;;;;5032354;28;20100;-80
2023/04/30 05:58:38;;;;;;;7.82;4.88;;;12.80;99.90;;;;;;5032438;28;20037;-82
2023/04/30 06:01:04;;;;;;;9.85;5.03;;;12.80;99.90;;;;;;5032995;28;20091;-82
2023/04/30 06:03:30;;;;;;;10.18;5.15;;;12.80;99.90;;;;;;5032616;28;20029;-82
2023/04/30 06:05:56;;;;;;;7.38;4.45;;;12.80;99.90;;;;;;5033197;28;20116;-82
2023/04/30 06:08:21;;;;;;;8.48;4.60;;;12.80;99.90;;;;;;5032618;28;20125;-82
2023/04/30 06:10:47;;;;;;;8.75;5.22;;;12.80;99.90;;;;;;5035406;28;20057;-81
2023/04/30 06:13:13;;;;;;;7.55;4.93;;;12.80;99.90;;;;;;5034809;28;20021;-83
2023/04/30 06:15:40;;;;;;;6.72;4.65;;;12.90;99.90;;;;;;5032913;28;20120;-81
2023/04/30 06:18:06;;;;;;;10.77;5.05;;;12.90;99.90;;;;;;5032435;28;21207;-82
2023/04/30 06:20:31;;;;;;;10.02;5.00;;;13.00;99.90;;;;;;5031784;28;20315;-81
2023/04/30 06:22:58;;;;;;;8.18;5.18;;;13.00;99.90;;;;;;5032289;28;20083;-83
2023/04/30 06:25:25;;;;;;;7.72;5.15;;;13.00;99.90;;;;;;5031829;28;20033;-83
2023/04/30 06:27:52;;;;;;;8.02;5.25;;;13.10;99.90;;;;;;5042277;28;20059;-82
2023/04/30 06:30:18;;;;;;;8.50;5.10;;;13.10;99.90;;;;;;5055412;28;20040;-82
2023/04/30 06:32:44;;;;;;;8.35;4.75;;;13.10;99.90;;;;;;5056053;28;20025;-82
2023/04/30 06:35:10;;;;;;;7.28;5.13;;;13.10;99.90;;;;;;5055984;28;20024;-83
2023/04/30 06:37:36;;;;;;;7.32;5.43;;;13.10;99.90;;;;;;5073414;28;20031;-81
2023/04/30 06:40:04;;;;;;;8.45;5.60;;;13.10;99.90;;;;;;5055861;28;20063;-78
2023/04/30 06:42:33;;;;;;;9.60;5.10;;;13.00;99.90;;;;;;5070950;28;20029;-81
2023/04/30 06:45:01;;;;;;;6.97;5.10;;;13.00;99.90;;;;;;5035905;28;20029;-81
2023/04/30 06:47:26;;;;;;;6.80;5.03;;;13.00;99.90;;;;;;5035803;28;20029;-81
2023/04/30 06:49:52;;;;;;;9.43;5.55;;;13.10;99.90;;;;;;5035579;28;20044;-81
2023/04/30 06:52:18;;;;;;;10.00;5.15;;;13.10;99.90;;;;;;5035655;28;20021;-81
2023/04/30 06:54:43;;;;;;;9.68;4.75;;;13.10;99.90;;;;;;5036426;28;20025;-80
2023/04/30 06:57:09;;;;;;;6.65;4.68;;;13.20;99.90;;;;;;5051359;28;20033;-82
2023/04/30 06:59:34;;;;;;;8.05;5.25;;;13.20;99.90;;;;;;5052412;28;20544;-80
2023/04/30 07:02:00;;;;;;;6.65;4.78;;;13.20;99.90;;;;;;5036053;28;20104;-81
2023/04/30 07:04:26;;;;;;;10.18;5.47;;;13.30;99.90;;;;;;5047440;28;20027;-82
2023/04/30 07:06:52;;;;;;;7.57;5.20;;;13.40;99.90;;;;;;5060845;28;20154;-81
2023/04/30 07:09:17;;;;;;;9.27;6.07;;;13.50;99.90;;;;;;5061118;28;20111;-83
2023/04/30 07:11:44;;;;;;;9.10;5.75;;;13.50;99.90;;;;;;5076087;28;20024;-82
2023/04/30 07:14:10;;;;;;;9.10;5.65;;;13.50;99.90;;;;;;5077493;28;20028;-82
2023/04/30 07:16:35;;;;;;;8.45;5.45;;;13.60;99.90;;;;;;5095466;28;20034;-78
2023/04/30 07:19:01;;;;;;;7.38;5.18;;;13.60;99.90;;;;;;5073487;28;20033;-80
2023/04/30 07:21:26;;;;;;;8.68;5.45;;;13.50;99.90;;;;;;5079749;28;20389;-77
2023/04/30 07:23:52;;;;;;;7.80;5.30;;;13.60;99.90;;;;;;5088732;28;20089;-79
2023/04/30 07:26:18;;;;;;;7.55;5.07;;;13.60;99.90;;;;;;5072968;28;20107;-74
2023/04/30 07:28:47;;;;;;;9.73;5.15;;;13.60;99.90;;;;;;5081625;28;20053;-79
2023/04/30 07:31:12;;;;;;;6.88;4.85;;;13.70;99.90;;;;;;5059440;28;20107;-79
2023/04/30 07:33:38;;;;;;;11.70;5.38;;;13.70;99.90;;;;;;5058728;28;20115;-81
2023/04/30 07:36:04;;;;;;;8.38;5.18;;;13.70;99.90;;;;;;5062635;28;20369;-80
2023/04/30 07:38:30;;;;;;;7.63;5.07;;;13.70;99.90;;;;;;5083033;28;20059;-80
2023/04/30 07:40:56;;;;;;;7.47;5.10;;;13.70;99.90;;;;;;5094073;28;20016;-80
2023/04/30 07:43:22;;;;;;;6.95;4.82;;;13.80;99.90;;;;;;5084020;28;20093;-79
2023/04/30 07:45:48;;;;;;;8.50;5.28;;;13.90;99.90;;;;;;5079722;28;20465;-82
2023/04/30 07:48:15;;;;;;;8.63;5.30;;;13.90;99.90;;;;;;5071438;28;20170;-82
2023/04/30 07:50:40;;;;;;;6.82;4.72;;;14.00;99.90;;;;;;5091302;28;20017;-82
2023/04/30 07:53:08;;;;;;;9.73;4.72;;;14.00;99.90;;;;;;5060992;28;20024;-83
2023/04/30 07:55:34;;;;;;;10.70;5.35;;;14.00;99.90;;;;;;5061529;28;20430;-83
2023/04/30 07:58:01;;;;;;;7.22;5.18;;;14.00;99.90;;;;;;5073400;28;20096;-83
2023/04/30 08:00:28;;;;;;;7.55;5.00;;;14.10;99.90;;;;;;5065866;28;20235;-83
2023/04/30 08:02:54;;;;;;;7.60;4.63;;;14.10;99.90;;;;;;5070158;28;20023;-83
2023/04/30 08:05:20;;;;;;;9.68;4.90;;;14.10;99.90;;;;;;5082624;28;20460;-77
2023/04/30 08:07:45;;;;;;;6.82;4.80;;;14.10;99.90;;;;;;5084903;28;20012;-78
2023/04/30 08:10:11;;;;;;;6.15;4.72;;;14.20;99.90;;;;;;5082752;28;20020;-80
2023/04/30 08:12:37;;;;;;;7.40;4.00;;;14.20;99.90;;;;;;5063985;28;20035;-80
2023/04/30 08:15:04;;;;;;;8.90;4.85;;;14.20;99.90;;;;;;5089841;28;20087;-79
2023/04/30 08:17:31;;;;;;;7.22;4.50;;;14.30;99.90;;;;;;5067141;28;20115;-81
2023/04/30 08:19:56;;;;;;;6.15;4.60;;;14.40;99.90;;;;;;5066397;28;20034;-81
2023/04/30 08:22:22;;;;;;;7.28;5.10;;;14.40;99.90;;;;;;5085480;28;20024;-81
2023/04/30 08:24:48;;;;;;;8.40;4.10;;;14.50;99.90;;;;;;5086911;28;20020;-79
2023/04/30 08:27:15;;;;;;;6.63;4.90;;;14.50;99.90;;;;;;5057592;28;20020;-79
2023/04/30 08:29:41;;;;;;;8.27;4.65;;;14.50;99.90;;;;;;5066666;28;20047;-78
2023/04/30 08:32:07;;;;;;;7.93;4.60;;;14.60;99.90;;;;;;5085238;28;20028;-79
2023/04/30 08:34:33;;;;;;;6.00;4.55;;;14.70;99.90;;;;;;5063372;28;20021;-79
2023/04/30 08:37:00;;;;;;;9.00;4.45;;;14.70;99.90;;;;;;5080796;28;20364;-79
2023/04/30 08:39:25;;;;;;;7.75;4.38;;;14.70;99.90;;;;;;5060927;28;20025;-79
2023/04/30 08:41:55;;;;;;;7.10;4.50;;;14.80;99.90;;;;;;5083977;28;20023;-80
2023/04/30 08:44:22;;;;;;;6.90;3.72;;;14.90;99.90;;;;;;5063916;28;20103;-79
2023/04/30 08:46:52;;;;;;;6.55;3.90;;;15.00;99.90;;;;;;5062889;28;20024;-79
2023/04/30 08:49:19;;;;;;;6.07;3.85;;;15.20;99.90;;;;;;5081256;28;20031;-78
2023/04/30 08:51:46;;;;;;;4.15;3.22;;;15.20;99.90;;;;;;5061668;28;20117;-80
2023/04/30 08:54:13;;;;;;;6.15;3.20;;;15.30;99.90;;;;;;5066270;28;20028;-81
2023/04/30 08:56:39;;;;;;;6.68;4.07;;;15.40;99.90;;;;;;5085007;28;20023;-78
2023/04/30 08:59:06;;;;;;;6.50;3.83;;;15.40;99.90;;;;;;5083113;28;20032;-79
2023/04/30 09:01:33;;;;;;;5.43;3.40;;;15.50;99.90;;;;;;5066072;28;20028;-79
2023/04/30 09:04:03;;;;;;;3.42;2.78;;;15.50;99.90;;;;;;5061629;28;20028;-79
2023/04/30 09:06:29;;;;;;;3.45;2.72;;;15.60;99.90;;;;;;5074668;28;20024;-79
2023/04/30 09:08:54;;;;;;;5.15;3.15;;;15.60;99.90;;;;;;5069869;28;20116;-80
2023/04/30 09:11:23;;;;;;;5.70;2.83;;;15.80;99.90;;;;;;5083284;28;20032;-78
2023/04/30 09:13:51;;;;;;;5.95;2.92;;;15.90;99.90;;;;;;5088664;28;20074;-78
2023/04/30 09:16:17;;;;;;;7.80;3.47;;;16.10;99.90;;;;;;5093673;28;20032;-79
2023/04/30 09:18:43;;;;;;;4.60;2.92;;;16.20;99.90;;;;;;5079947;28;20035;-77
2023/04/30 09:21:09;;;;;;;3.13;2.70;;;16.30;99.90;;;;;;5093618;28;20376;-77
2023/04/30 09:23:34;;;;;;;2.75;2.40;;;16.40;99.90;;;;;;5085442;28;20031;-78
2023/04/30 09:26:00;;;;;;;4.93;2.95;;;16.40;99.90;;;;;;5064936;28;20031;-78
2023/04/30 09:28:27;;;;;;;7.10;3.10;;;16.40;99.90;;;;;;5075005;28;20051;-78
2023/04/30 09:30:55;;;;;;;5.07;3.22;;;16.50;99.90;;;;;;5061614;28;20060;-78
2023/04/30 09:33:21;;;;;;;3.83;2.88;;;16.50;99.90;;;;;;5065770;28;20036;-78
2023/04/30 09:35:47;;;;;;;4.47;2.80;;;16.50;99.90;;;;;;5087464;28;20028;-77
2023/04/30 09:38:25;;;;;;;6.25;2.80;;;16.60;99.90;;;;;;5074357;28;20051;-78
2023/04/30 09:40:51;;;;;;;4.30;2.60;;;16.70;99.90;;;;;;5050706;28;20158;-77
2023/04/30 09:43:16;;;;;;;4.30;3.10;;;16.70;99.90;;;;;;5055591;28;20066;-80
2023/04/30 09:45:48;;;;;;;3.72;2.65;;;16.80;99.90;;;;;;5086970;28;20105;-77
2023/04/30 09:48:22;;;;;;;5.05;3.00;;;16.80;99.90;;;;;;5054381;28;20166;-78
2023/04/30 09:50:49;;;;;;;4.10;2.67;;;16.80;99.90;;;;;;5057193;28;20468;-77
2023/04/30 09:53:18;;;;;;;3.63;2.45;;;16.80;99.90;;;;;;5072843;28;20533;-80
2023/04/30 09:55:46;;;;;;;2.78;2.25;;;16.80;99.90;;;;;;5064332;28;20034;-80
2023/04/30 09:58:12;;;;;;;2.97;2.22;;;16.90;99.90;;;;;;5071538;28;20119;-79
2023/04/30 10:00:41;;;;;;;5.50;2.60;;;17.00;99.90;;;;;;5081066;28;20574;-79
2023/04/30 10:03:08;;;;;;;5.82;2.28;;;17.00;99.90;;;;;;5081782;28;20028;-79
2023/04/30 10:05:41;;;;;;;4.50;2.30;;;17.00;99.90;;;;;;5092711;28;20028;-78
2023/04/30 10:08:12;;;;;;;4.22;2.00;;;17.10;99.90;;;;;;5082131;28;20501;-78
2023/04/30 10:10:41;;;;;;;3.70;2.50;;;17.30;99.90;;;;;;5054751;28;20071;-79
2023/04/30 10:13:13;;;;;;;3.78;2.42;;;17.40;99.90;;;;;;5063739;28;20059;-79
2023/04/30 10:15:43;;;;;;;2.85;2.30;;;17.40;99.90;;;;;;5041894;28;20508;-78
2023/04/30 10:18:19;;;;;;;2.88;2.20;;;17.20;99.90;;;;;;5064353;28;20031;-78
2023/04/30 10:20:47;;;;;;;3.95;2.42;;;17.10;99.90;;;;;;5054490;28;20024;-78
2023/04/30 10:23:14;;;;;;;3.03;2.20;;;17.10;99.90;;;;;;5082186;28;20035;-79
2023/04/30 10:25:40;;;;;;;3.35;2.10;;;17.10;99.90;;;;;;5077703;28;20024;-79
2023/04/30 10:28:07;;;;;;;3.50;1.83;;;17.30;99.90;;;;;;5079455;28;20060;-79
2023/04/30 10:30:34;;;;;;;1.95;1.67;;;17.40;99.90;;;;;;5063618;28;20153;-79
2023/04/30 10:33:16;;;;;;;2.67;1.90;;;17.50;99.00;;;;;;5063527;28;20024;-78
2023/04/30 10:35:58;;;;;;;5.38;1.80;;;17.60;99.50;;;;;;5080253;28;20029;-78
2023/04/30 10:38:28;;;;;;;2.22;1.70;;;17.60;99.00;;;;;;5061503;28;20042;-79
2023/04/30 10:40:58;;;;;;;2.97;1.98;;;17.50;98.30;;;;;;5055577;28;20024;-79
2023/04/30 10:43:25;;;;;;;3.25;1.80;;;17.60;98.90;;;;;;5072284;28;20044;-79
2023/04/30 10:45:50;;;;;;;3.05;2.08;;;17.60;98.40;;;;;;5057211;28;20063;-77
2023/04/30 10:48:23;;;;;;;3.10;1.85;;;17.60;98.10;;;;;;5060422;28;20059;-78
2023/04/30 10:50:51;;;;;;;2.45;1.67;;;17.70;97.50;;;;;;5096558;28;20024;-79
2023/04/30 10:53:18;;;;;;;3.53;2.15;;;17.80;96.80;;;;;;5088426;28;20047;-79
2023/04/30 10:56:05;;;;;;;5.45;1.60;;;17.80;96.80;;;;;;5086506;28;20024;-80
2023/04/30 10:58:36;;;;;;;2.35;1.92;;;17.80;96.80;;;;;;5072259;28;20040;-79
2023/04/30 11:01:13;;;;;;;2.97;1.77;;;17.90;96.90;;;;;;5059387;28;20035;-79
2023/04/30 11:04:03;;;;;;;3.38;1.75;;;17.90;96.20;;;;;;5059010;28;20036;-79
2023/04/30 11:07:08;;;;;;;3.08;1.80;;;17.90;96.40;;;;;;5088806;28;20095;-79
2023/04/30 11:09:42;;;;;;;3.30;1.35;;;17.90;96.10;;;;;;5076179;28;20052;-79
2023/04/30 11:12:18;;;;;;;5.57;2.10;;;18.10;95.50;;;;;;5059202;28;20037;-79
2023/04/30 11:14:45;;;;;;;5.05;2.08;;;18.10;93.90;;;;;;5064993;28;20127;-79
2023/04/30 11:17:21;;;;;;;2.00;1.63;;;18.20;95.00;;;;;;5058508;28;20432;-80
2023/04/30 11:19:52;;;;;;;3.17;1.65;;;18.30;94.90;;;;;;5065831;28;20449;-77
2023/04/30 11:22:23;;;;;;;2.38;1.70;;;18.30;95.20;;;;;;5078168;28;20033;-78
2023/04/30 11:24:53;;;;;;;2.25;1.83;;;18.30;94.50;;;;;;5055908;28;20036;-78
2023/04/30 11:27:31;;;;;;;4.10;1.90;;;18.40;95.00;;;;;;5050825;28;20056;-80
2023/04/30 11:29:57;;;;;;;2.08;1.65;;;18.50;95.50;;;;;;5025146;28;20083;-78
2023/04/30 11:32:25;;;;;;;2.63;1.42;;;18.40;94.40;;;;;;5054355;28;20025;-77
2023/04/30 11:34:51;;;;;;;1.40;1.30;;;18.60;94.40;;;;;;5027730;28;20124;-78
2023/04/30 11:37:31;;;;;;;1.95;1.20;;;18.60;95.00;;;;;;5055795;28;20136;-78
2023/04/30 11:40:00;;;;;;;3.72;1.65;;;18.70;92.80;;;;;;5054744;28;20082;-78
2023/04/30 11:42:25;;;;;;;1.67;1.20;;;18.70;92.10;;;;;;5051172;28;20030;-79
2023/04/30 11:44:51;;;;;;;2.88;1.60;;;18.80;91.00;;;;;;5047259;28;20025;-79
2023/04/30 11:47:16;;;;;;;2.05;1.52;;;18.80;91.30;;;;;;5045099;28;20032;-78
2023/04/30 11:49:42;;;;;;;2.47;1.40;;;18.80;90.80;;;;;;5049243;28;20039;-77
2023/04/30 11:52:08;;;;;;;2.33;1.60;;;18.90;90.70;;;;;;5038166;28;20025;-78
2023/04/30 11:54:38;;;;;;;2.15;1.65;;;19.00;89.90;;;;;;5034564;28;20569;-80
2023/04/30 11:57:04;;;;;;;2.20;1.48;;;19.10;91.30;;;;;;5033409;28;20036;-81
2023/04/30 11:59:31;;;;;;;3.85;1.42;;;19.30;91.20;;;;;;5051176;28;20036;-79
2023/04/30 12:01:57;;;;;;;2.28;1.40;;;19.30;91.00;;;;;;5039125;28;20109;-80
2023/04/30 12:04:23;;;;;;;1.90;1.63;;;19.30;90.50;;;;;;5034788;28;20022;-80
2023/04/30 12:06:49;;;;;;;2.50;1.63;;;19.40;91.30;;;;;;5034514;28;20029;-80
2023/04/30 12:09:15;;;;;;;2.92;1.55;;;19.40;87.70;;;;;;5034403;28;20565;-79
2023/04/30 12:11:40;;;;;;;3.05;2.25;;;19.30;89.10;;;;;;5046787;28;20048;-78
2023/04/30 12:14:11;;;;;;;1.92;1.70;;;19.30;85.70;;;;;;5050037;28;20032;-78
2023/04/30 12:16:44;;;;;;;3.50;1.70;;;19.30;87.30;;;;;;5031659;28;20080;-79
2023/04/30 12:19:10;;;;;;;2.65;1.50;;;19.20;87.80;;;;;;5034187;28;20041;-79
2023/04/30 12:21:36;;;;;;;3.20;1.80;;;19.20;87.30;;;;;;5033030;28;20029;-79
2023/04/30 12:24:01;;;;;;;2.63;1.73;;;19.20;88.40;;;;;;5039567;28;20025;-79
2023/04/30 12:26:38;;;;;;;4.38;1.70;;;19.20;88.30;;;;;;5033704;28;20037;-81
2023/04/30 12:29:24;;;;;;;2.00;1.60;;;19.30;90.10;;;;;;5056171;28;20049;-80
2023/04/30 12:31:50;;;;;;;2.78;1.65;;;19.50;90.10;;;;;;5075803;28;20067;-80
2023/04/30 12:34:17;;;;;;;1.48;1.20;;;19.50;89.70;;;;;;5057573;28;20040;-80
2023/04/30 12:36:43;;;;;;;3.08;2.05;;;19.70;89.10;;;;;;5073978;28;20029;-80
2023/04/30 12:39:10;;;;;;;4.65;1.77;;;19.80;87.60;;;;;;5064446;28;20108;-81
2023/04/30 12:41:41;;;;;;;7.32;1.77;;;20.00;86.10;;;;;;5066437;28;20051;-81
2023/04/30 12:44:13;;;;;;;4.17;1.70;;;20.00;88.30;;;;;;5075155;28;20025;-81
2023/04/30 12:46:40;;;;;;;3.28;2.13;;;20.10;82.90;;;;;;5073123;28;20107;-81
2023/04/30 12:49:05;;;;;;;3.22;1.73;;;19.90;80.30;;;;;;5072584;28;20036;-84